Terminal Aerodrome Forecast
Issued by NWS

Home | Current Version | Previous Version | Text Only | Print | Product List | Glossary On
Versions: 1 2 3 4 5 6 7 8 9 10 11 12 13
912
FTUS46 KSTO 252330
TAFSCK
TAF
KSCK 252330Z 2600/2624 30011KT P6SM SKC
     FM260900 VRB04KT P6SM BKN025
     FM262100 29005KT P6SM FEW050=

USA.gov is the U.S. government's official web portal to all federal, state and local government web resources and services.